createdAt,value
2022-11-19T00:03:31.687Z,0.38
2022-11-19T00:08:33.623Z,0.33
2022-11-19T00:13:35.680Z,0.29
2022-11-19T00:18:37.239Z,0.17
2022-11-19T00:23:39.669Z,0.12
2022-11-19T00:28:41.913Z,0.03
2022-11-19T00:33:45.071Z,-0.12
2022-11-19T00:38:46.414Z,-0.24
2022-11-19T00:43:48.288Z,-0.29
2022-11-19T00:48:51.786Z,-0.32
2022-11-19T00:53:53.532Z,-0.39
2022-11-19T00:58:55.176Z,-0.48
2022-11-19T01:03:56.568Z,-0.55
2022-11-19T01:08:58.533Z,-0.64
2022-11-19T01:14:01.108Z,-0.75
2022-11-19T01:19:03.966Z,-0.79
2022-11-19T01:24:06.088Z,-0.83
2022-11-19T01:29:07.565Z,-0.87
2022-11-19T01:34:08.973Z,-0.96
2022-11-19T01:39:10.387Z,-1.04
2022-11-19T01:44:49.581Z,-1.10
2022-11-19T01:49:51.255Z,-1.11
2022-11-19T01:54:55.432Z,-1.11
2022-11-19T01:59:56.961Z,-1.07
2022-11-19T02:04:58.493Z,-1.00
2022-11-19T02:10:02.443Z,-0.94
2022-11-19T02:15:22.047Z,-0.93
2022-11-19T02:20:49.902Z,-0.84
2022-11-19T02:25:51.262Z,-0.78
2022-11-19T02:30:59.847Z,-0.78
2022-11-19T02:36:14.064Z,-0.89
2022-11-19T02:41:33.864Z,-1.04
2022-11-19T02:46:35.795Z,-1.18
2022-11-19T02:51:37.701Z,-1.26
2022-11-19T02:56:52.816Z,-1.30
2022-11-19T03:02:12.903Z,-1.34
2022-11-19T03:07:17.928Z,-1.42
2022-11-19T03:12:47.128Z,-1.45
2022-11-19T03:18:23.571Z,-1.48
2022-11-19T03:23:31.536Z,-1.48
2022-11-19T03:28:37.347Z,-1.47
2022-11-19T03:33:44.453Z,-1.46
2022-11-19T03:38:50.706Z,-1.51
2022-11-19T03:43:58.226Z,-1.59
2022-11-19T03:49:02.151Z,-1.68
2022-11-19T03:54:03.872Z,-1.74
2022-11-19T03:59:08.456Z,-1.78
2022-11-19T04:04:28.593Z,-1.82
2022-11-19T04:09:30.012Z,-1.88
2022-11-19T04:14:31.500Z,-1.87
2022-11-19T04:19:32.889Z,-1.92
2022-11-19T04:24:34.580Z,-1.97
2022-11-19T04:29:36.112Z,-1.96
2022-11-19T04:34:37.576Z,-2.03
2022-11-19T04:39:38.998Z,-2.10
2022-11-19T04:44:40.459Z,-2.14
2022-11-19T04:49:41.965Z,-2.16
2022-11-19T04:54:43.347Z,-2.17
2022-11-19T04:59:44.768Z,-2.22
2022-11-19T05:04:46.195Z,-2.23
2022-11-19T05:09:47.627Z,-2.26
2022-11-19T05:14:49.088Z,-2.29
2022-11-19T05:19:50.484Z,-2.36
2022-11-19T05:24:52.079Z,-2.40
2022-11-19T05:29:53.565Z,-2.42
2022-11-19T05:34:55.012Z,-2.38
2022-11-19T05:39:56.428Z,-2.39
2022-11-19T05:44:57.962Z,-2.43
2022-11-19T05:49:59.575Z,-2.46
2022-11-19T05:55:01.389Z,-2.51
2022-11-19T06:00:03.222Z,-2.50
2022-11-19T06:05:13.672Z,-2.48
2022-11-19T06:10:15.263Z,-2.49
2022-11-19T06:15:16.992Z,-2.50
2022-11-19T06:20:21.496Z,-2.53
2022-11-19T06:25:23.149Z,-2.57
2022-11-19T06:30:24.556Z,-2.57
2022-11-19T06:35:26.031Z,-2.53
2022-11-19T06:40:27.404Z,-2.56
2022-11-19T06:45:28.871Z,-2.62
2022-11-19T06:50:30.656Z,-2.63
2022-11-19T06:55:32.087Z,-2.54
2022-11-19T07:00:34.828Z,-2.57
2022-11-19T07:05:36.286Z,-2.63
2022-11-19T07:10:37.786Z,-2.66
2022-11-19T07:15:39.283Z,-2.58
2022-11-19T07:20:41.296Z,-2.53
2022-11-19T07:25:42.696Z,-2.51
2022-11-19T07:30:44.198Z,-2.45
2022-11-19T07:35:45.710Z,-2.43
2022-11-19T07:40:55.836Z,-2.46
2022-11-19T07:45:57.241Z,-2.34
2022-11-19T07:50:58.650Z,-2.23
2022-11-19T07:56:00.947Z,-2.22
2022-11-19T08:01:13.954Z,-2.10
2022-11-19T08:06:17.306Z,-1.97
2022-11-19T08:11:19.147Z,-1.84
2022-11-19T08:16:39.371Z,-1.79
2022-11-19T08:21:43.318Z,-1.73
2022-11-19T08:26:45.689Z,-1.56
2022-11-19T08:31:49.483Z,-1.37
2022-11-19T08:36:51.031Z,-1.23
2022-11-19T08:42:11.041Z,-1.14
2022-11-19T08:47:12.491Z,-1.04
2022-11-19T08:52:14.439Z,-0.97
2022-11-19T08:57:15.866Z,-0.86
2022-11-19T09:02:17.371Z,-0.75
2022-11-19T09:07:19.274Z,-0.59
2022-11-19T09:12:20.738Z,-0.45
2022-11-19T09:17:22.187Z,-0.32
2022-11-19T09:22:24.218Z,-0.17
2022-11-19T09:27:25.758Z,-0.11
2022-11-19T09:32:28.908Z,-0.07
2022-11-19T09:37:34.069Z,0.02
2022-11-19T09:43:05.141Z,0.15
2022-11-19T09:48:14.177Z,0.25
2022-11-19T09:53:19.151Z,0.35
2022-11-19T09:58:37.451Z,0.48
2022-11-19T10:03:44.805Z,0.56
2022-11-19T10:09:09.487Z,0.67
2022-11-19T10:14:17.596Z,0.75
2022-11-19T10:19:32.760Z,0.85
2022-11-19T10:24:50.611Z,0.97
2022-11-19T10:29:56.417Z,1.06
2022-11-19T10:35:06.363Z,1.20
2022-11-19T10:40:23.799Z,1.33
2022-11-19T10:45:27.602Z,1.39
2022-11-19T10:50:29.151Z,1.47
2022-11-19T10:55:37.594Z,1.59
2022-11-19T11:00:41.308Z,1.74
2022-11-19T11:06:07.081Z,1.81
2022-11-19T11:11:08.559Z,1.90
2022-11-19T11:16:13.561Z,2.03
2022-11-19T11:21:36.783Z,2.11
2022-11-19T11:26:38.859Z,2.14
2022-11-19T11:31:44.772Z,2.19
2022-11-19T11:36:46.229Z,2.30
2022-11-19T11:42:07.082Z,2.41
2022-11-19T11:47:18.103Z,2.47
2022-11-19T11:52:28.495Z,2.48
2022-11-19T11:57:33.664Z,2.44
2022-11-19T12:02:36.012Z,2.41
2022-11-19T12:07:50.851Z,2.39
2022-11-19T12:13:28.401Z,2.33
2022-11-19T12:18:51.189Z,2.30
2022-11-19T12:24:06.615Z,2.28
2022-11-19T12:29:39.110Z,2.30
2022-11-19T12:34:57.200Z,2.31
2022-11-19T12:40:36.577Z,2.37
2022-11-19T12:45:53.457Z,2.31
2022-11-19T12:51:16.222Z,2.35
2022-11-19T12:56:43.591Z,2.39
2022-11-19T13:01:50.534Z,2.39
2022-11-19T13:07:04.067Z,2.40
2022-11-19T13:12:09.343Z,2.50
2022-11-19T13:17:35.293Z,2.75
2022-11-19T13:22:40.943Z,3.20
2022-11-19T13:27:44.611Z,3.64
2022-11-19T13:33:21.812Z,3.92
2022-11-19T13:38:46.420Z,3.84
2022-11-19T13:44:17.601Z,3.33
2022-11-19T13:49:25.800Z,2.86
2022-11-19T13:54:36.184Z,2.60
2022-11-19T13:59:49.467Z,2.42
2022-11-19T14:04:56.654Z,2.25
2022-11-19T14:10:04.336Z,2.09
2022-11-19T14:16:19.116Z,1.92
2022-11-19T14:21:45.077Z,1.81
2022-11-19T14:26:52.171Z,1.72
2022-11-19T14:32:00.056Z,1.67
2022-11-19T14:37:17.044Z,1.61
2022-11-19T14:42:22.181Z,1.58
2022-11-19T14:47:28.659Z,1.51
2022-11-19T14:52:40.059Z,1.45
2022-11-19T14:57:43.283Z,1.32
2022-11-19T15:02:48.369Z,1.21
2022-11-19T15:08:11.578Z,1.06
2022-11-19T15:13:25.804Z,0.96
2022-11-19T15:18:37.602Z,0.84
2022-11-19T15:24:15.019Z,0.73
2022-11-19T15:29:35.272Z,0.64
2022-11-19T15:35:13.662Z,0.61
2022-11-19T15:40:24.152Z,0.48
2022-11-19T15:45:27.141Z,0.41
2022-11-19T15:50:28.989Z,0.33
2022-11-19T15:55:31.741Z,0.25
2022-11-19T16:00:47.603Z,0.16
2022-11-19T16:06:02.478Z,0.07
2022-11-19T16:11:23.379Z,-0.03
2022-11-19T16:16:47.508Z,-0.03
2022-11-19T16:22:15.251Z,-0.04
2022-11-19T16:33:49.921Z,-0.18
2022-11-19T16:39:01.947Z,-0.18
2022-11-19T16:44:11.633Z,-0.20
2022-11-19T16:50:46.644Z,-0.26
2022-11-19T17:10:07.810Z,-0.47
2022-11-19T17:15:35.451Z,-0.53
2022-11-19T17:27:41.967Z,-0.76
2022-11-19T17:32:56.872Z,-0.74
2022-11-19T17:38:29.959Z,-0.78
2022-11-19T17:48:04.575Z,-0.84
2022-11-19T17:57:13.390Z,-0.95
2022-11-19T18:02:38.946Z,-0.99
2022-11-19T18:14:16.464Z,-1.13
2022-11-19T18:19:26.452Z,-1.18
2022-11-19T18:24:28.477Z,-1.22
2022-11-19T18:29:32.614Z,-1.20
2022-11-19T18:34:35.145Z,-1.17
2022-11-19T18:39:36.615Z,-1.17
2022-11-19T18:44:38.767Z,-1.17
2022-11-19T18:49:40.924Z,-1.11
2022-11-19T18:54:42.532Z,-1.09
2022-11-19T18:59:44.084Z,-1.11
2022-11-19T19:04:50.654Z,-1.17
2022-11-19T19:09:52.610Z,-1.23
2022-11-19T19:14:54.599Z,-1.23
2022-11-19T19:19:56.087Z,-1.26
2022-11-19T19:24:58.501Z,-1.35
2022-11-19T19:30:00.881Z,-1.43
2022-11-19T19:35:02.562Z,-1.52
2022-11-19T19:40:04.658Z,-1.47
2022-11-19T19:45:06.942Z,-1.52
2022-11-19T19:50:08.884Z,-1.58
2022-11-19T19:55:10.456Z,-1.70
2022-11-19T20:00:16.017Z,-1.74
2022-11-19T20:05:24.399Z,-1.63
2022-11-19T20:10:28.379Z,-1.47
2022-11-19T20:15:32.994Z,-1.39
2022-11-19T20:20:42.293Z,-1.38
2022-11-19T20:25:46.646Z,-1.42
2022-11-19T20:30:49.334Z,-1.50
2022-11-19T20:35:53.884Z,-1.60
2022-11-19T20:41:38.063Z,-1.65
2022-11-19T20:52:37.661Z,-1.76
2022-11-19T20:57:44.877Z,-1.71
2022-11-19T21:02:46.486Z,-1.61
2022-11-19T21:07:48.498Z,-1.55
2022-11-19T21:13:02.396Z,-1.53
2022-11-19T21:18:04.098Z,-1.47
2022-11-19T21:23:05.639Z,-1.36
2022-11-19T21:28:09.421Z,-1.34
2022-11-19T21:33:10.979Z,-1.30
2022-11-19T21:38:12.671Z,-1.27
2022-11-19T21:43:14.217Z,-1.23
2022-11-19T21:48:35.313Z,-1.19
2022-11-19T21:53:40.511Z,-1.19
2022-11-19T22:05:23.892Z,-1.19
2022-11-19T22:10:27.873Z,-1.17
2022-11-19T22:15:30.179Z,-1.14
2022-11-19T22:25:48.464Z,-1.22
2022-11-19T22:31:02.838Z,-1.22
2022-11-19T22:36:10.024Z,-1.22
2022-11-19T22:41:17.101Z,-1.29
2022-11-19T22:46:20.776Z,-1.39
2022-11-19T22:51:35.642Z,-1.50
2022-11-19T22:56:42.128Z,-1.65
2022-11-19T23:01:43.669Z,-1.80
2022-11-19T23:06:45.086Z,-1.78
2022-11-19T23:12:05.168Z,-1.76
2022-11-19T23:17:06.799Z,-1.76
2022-11-19T23:22:08.569Z,-1.73
2022-11-19T23:27:09.969Z,-1.83
2022-11-19T23:32:11.347Z,-1.86
2022-11-19T23:37:12.910Z,-1.86
2022-11-19T23:42:14.578Z,-1.93
2022-11-19T23:47:16.004Z,-1.98
2022-11-19T23:52:17.379Z,-2.00
2022-11-19T23:57:18.811Z,-2.06
